West Milton, New York
Current Conditions -  °F | °C
As of 8:51 PM on Saturday 22 Nov 2014 (Local Time) from KALB Reporting Station
Overcast Overcast  
Wind Chill: 32°   Ceiling: 3200
Heat Index: 39°   Visibility: 10mi
Dew Point: 22°   Wind: 10mph
Humidity: 50%   Direction: 170°S
Pressure: 30.08"   Gusts: NA
Location:  43.002°N, 73.8759°W
Report Text: KALB 230151Z 17009KT 10SM BKN032 OVC055 04/M06 A3008 RMK AO2 RAE09 SLP189 P0000 T00391056
Loading
Personal Weather Stations






























Interactive Weather Map New forecast layout! Learn more

10-Day Weather Forecast

Advertisements
Track Severe Weather on mobile